This is the latest recevied weather packets stored in our database for station/object WA6OOO. If no packets are shown the sender has not sent any weather packets the latest 10 day(s).
| Time | Temp. | Humidity | Pressure | Rain* | Wind** | Luminosity | Snow |
|---|---|---|---|---|---|---|---|
| 1777829221 | 16.11° C | 73% | 1017.7 hPa | 0 mm | - | 340 W/m² | - |
| 1777828918 | 16.11° C | 73% | 1017.7 hPa | 0 mm | - | 284 W/m² | - |
| 1777828615 | 16.67° C | 72% | 1017.6 hPa | 0 mm | - | 300 W/m² | - |
| 1777828312 | 16.11° C | 72% | 1017.7 hPa | 0 mm | - | 278 W/m² | - |
| 1777828009 | 16.67° C | 72% | 1017.6 hPa | 0 mm | - | 271 W/m² | - |
| 1777827706 | 16.11° C | 73% | 1017.7 hPa | 0 mm | - | 218 W/m² | - |
| 1777827403 | 16.11° C | 72% | 1017.6 hPa | 0 mm | - | 264 W/m² | - |
| 1777827099 | 16.11° C | 73% | 1017.8 hPa | 0 mm | - | 196 W/m² | - |
| 1777826796 | 16.11° C | 73% | 1017.6 hPa | 0 mm | - | 202 W/m² | - |
| 1777826493 | 16.11° C | 72% | 1017.4 hPa | 0 mm | - | 321 W/m² | - |
| 1777826190 | 15.56° C | 74% | 1017.3 hPa | 0 mm | - | 321 W/m² | - |
| 1777825887 | 15.56° C | 76% | 1017.4 hPa | 0 mm | - | 277 W/m² | - |
| 1777825584 | 15° C | 76% | 1017.4 hPa | 0 mm | - | 254 W/m² | - |
| 1777825282 | 15° C | 78% | 1017.4 hPa | 0 mm | - | 163 W/m² | - |
| 1777824978 | 15° C | 78% | 1017.5 hPa | 0 mm | - | 128 W/m² | - |
| 1777824674 | 14.44° C | 79% | 1017.4 hPa | 0 mm | - | 102 W/m² | - |
| 1777824372 | 14.44° C | 79% | 1017.5 hPa | 0 mm | - | 105 W/m² | - |
| 1777824067 | 14.44° C | 80% | 1017.5 hPa | 0 mm | - | 88 W/m² | - |
| 1777823764 | 14.44° C | 79% | 1017.5 hPa | 0 mm | - | 69 W/m² | - |
| 1777823461 | 14.44° C | 80% | 1017.6 hPa | 0 mm | - | 59 W/m² | - |
| 1777823158 | 14.44° C | 80% | 1017.5 hPa | 0 mm | - | 56 W/m² | - |
| 1777822856 | 14.44° C | 80% | 1017.2 hPa | 0 mm | - | 52 W/m² | - |
| 1777822554 | 14.44° C | 80% | 1017.2 hPa | 0 mm | - | 49 W/m² | - |
| 1777822251 | 13.89° C | 80% | 1017.2 hPa | 0 mm | - | 52 W/m² | - |
| 1777821948 | 13.89° C | 80% | 1017.2 hPa | 0 mm | - | 53 W/m² | - |
* Rain latest hour (hover to see other rain measurements)
** Current wind speed in m/s (hover to see current wind gust speed)